sensor_id;sensor_type;location;lat;lon;timestamp;P1;durP1;ratioP1;P2;durP2;ratioP2
20154;SDS011;10238;49.556;10.956;2023-11-19T00:02:33;3.53;;;3.22;;
20154;SDS011;10238;49.556;10.956;2023-11-19T00:05:22;3.70;;;3.30;;
20154;SDS011;10238;49.556;10.956;2023-11-19T00:08:10;3.25;;;2.95;;
20154;SDS011;10238;49.556;10.956;2023-11-19T00:10:57;3.60;;;3.30;;
20154;SDS011;10238;49.556;10.956;2023-11-19T00:13:46;3.58;;;3.15;;
20154;SDS011;10238;49.556;10.956;2023-11-19T00:16:34;3.38;;;3.08;;
20154;SDS011;10238;49.556;10.956;2023-11-19T00:19:22;3.40;;;3.10;;
20154;SDS011;10238;49.556;10.956;2023-11-19T00:22:11;3.28;;;2.97;;
20154;SDS011;10238;49.556;10.956;2023-11-19T00:24:59;3.50;;;3.20;;
20154;SDS011;10238;49.556;10.956;2023-11-19T00:27:48;3.63;;;3.15;;
20154;SDS011;10238;49.556;10.956;2023-11-19T00:30:37;3.45;;;3.10;;
20154;SDS011;10238;49.556;10.956;2023-11-19T00:33:26;4.43;;;3.58;;
20154;SDS011;10238;49.556;10.956;2023-11-19T00:36:15;3.38;;;3.08;;
20154;SDS011;10238;49.556;10.956;2023-11-19T00:39:04;3.35;;;2.92;;
20154;SDS011;10238;49.556;10.956;2023-11-19T00:41:52;4.30;;;3.90;;
20154;SDS011;10238;49.556;10.956;2023-11-19T00:44:39;3.30;;;3.10;;
20154;SDS011;10238;49.556;10.956;2023-11-19T00:47:36;3.70;;;3.40;;
20154;SDS011;10238;49.556;10.956;2023-11-19T00:50:23;5.13;;;3.58;;
20154;SDS011;10238;49.556;10.956;2023-11-19T00:53:11;3.70;;;3.40;;
20154;SDS011;10238;49.556;10.956;2023-11-19T00:56:00;3.33;;;3.03;;
20154;SDS011;10238;49.556;10.956;2023-11-19T00:58:48;3.90;;;3.50;;
20154;SDS011;10238;49.556;10.956;2023-11-19T01:01:36;4.38;;;3.20;;
20154;SDS011;10238;49.556;10.956;2023-11-19T01:04:23;4.43;;;3.00;;
20154;SDS011;10238;49.556;10.956;2023-11-19T01:07:11;3.22;;;2.92;;
20154;SDS011;10238;49.556;10.956;2023-11-19T01:09:59;3.83;;;3.47;;
20154;SDS011;10238;49.556;10.956;2023-11-19T01:12:50;3.97;;;3.38;;
20154;SDS011;10238;49.556;10.956;2023-11-19T01:15:38;3.85;;;3.55;;
20154;SDS011;10238;49.556;10.956;2023-11-19T01:18:27;3.63;;;3.17;;
20154;SDS011;10238;49.556;10.956;2023-11-19T01:21:15;3.30;;;3.00;;
20154;SDS011;10238;49.556;10.956;2023-11-19T01:24:03;3.67;;;3.38;;
20154;SDS011;10238;49.556;10.956;2023-11-19T01:26:55;4.03;;;3.63;;
20154;SDS011;10238;49.556;10.956;2023-11-19T01:29:44;3.67;;;3.38;;
20154;SDS011;10238;49.556;10.956;2023-11-19T01:32:33;3.78;;;3.45;;
20154;SDS011;10238;49.556;10.956;2023-11-19T01:35:23;3.42;;;3.13;;
20154;SDS011;10238;49.556;10.956;2023-11-19T01:38:12;3.78;;;3.47;;
20154;SDS011;10238;49.556;10.956;2023-11-19T01:41:00;4.75;;;3.40;;
20154;SDS011;10238;49.556;10.956;2023-11-19T01:43:49;4.00;;;3.60;;
20154;SDS011;10238;49.556;10.956;2023-11-19T01:46:38;3.97;;;3.58;;
20154;SDS011;10238;49.556;10.956;2023-11-19T01:49:29;4.83;;;3.60;;
20154;SDS011;10238;49.556;10.956;2023-11-19T01:52:18;3.90;;;3.47;;
20154;SDS011;10238;49.556;10.956;2023-11-19T01:55:07;3.58;;;3.28;;
20154;SDS011;10238;49.556;10.956;2023-11-19T01:57:59;3.97;;;3.53;;
20154;SDS011;10238;49.556;10.956;2023-11-19T02:00:48;3.92;;;3.53;;
20154;SDS011;10238;49.556;10.956;2023-11-19T02:03:38;4.00;;;3.40;;
20154;SDS011;10238;49.556;10.956;2023-11-19T02:06:27;4.90;;;3.50;;
20154;SDS011;10238;49.556;10.956;2023-11-19T02:09:15;4.10;;;3.70;;
20154;SDS011;10238;49.556;10.956;2023-11-19T02:12:05;4.05;;;3.15;;
20154;SDS011;10238;49.556;10.956;2023-11-19T02:14:54;3.85;;;3.28;;
20154;SDS011;10238;49.556;10.956;2023-11-19T02:17:41;4.05;;;3.65;;
20154;SDS011;10238;49.556;10.956;2023-11-19T02:20:31;4.25;;;3.40;;
20154;SDS011;10238;49.556;10.956;2023-11-19T02:23:19;3.75;;;3.45;;
20154;SDS011;10238;49.556;10.956;2023-11-19T02:26:12;4.05;;;3.65;;
20154;SDS011;10238;49.556;10.956;2023-11-19T02:29:11;4.45;;;3.75;;
20154;SDS011;10238;49.556;10.956;2023-11-19T02:31:59;3.60;;;3.30;;
20154;SDS011;10238;49.556;10.956;2023-11-19T02:34:49;3.80;;;3.40;;
20154;SDS011;10238;49.556;10.956;2023-11-19T02:37:38;3.92;;;3.50;;
20154;SDS011;10238;49.556;10.956;2023-11-19T02:40:26;3.85;;;3.53;;
20154;SDS011;10238;49.556;10.956;2023-11-19T02:43:14;4.40;;;3.72;;
20154;SDS011;10238;49.556;10.956;2023-11-19T02:46:05;4.22;;;3.83;;
20154;SDS011;10238;49.556;10.956;2023-11-19T02:48:56;4.05;;;3.53;;
20154;SDS011;10238;49.556;10.956;2023-11-19T02:51:44;3.83;;;3.38;;
20154;SDS011;10238;49.556;10.956;2023-11-19T02:54:31;3.75;;;3.35;;
20154;SDS011;10238;49.556;10.956;2023-11-19T02:57:20;4.03;;;3.63;;
20154;SDS011;10238;49.556;10.956;2023-11-19T03:00:08;3.95;;;3.60;;
20154;SDS011;10238;49.556;10.956;2023-11-19T03:02:59;5.38;;;3.83;;
20154;SDS011;10238;49.556;10.956;2023-11-19T03:05:56;4.00;;;3.65;;
20154;SDS011;10238;49.556;10.956;2023-11-19T03:08:44;4.13;;;3.72;;
20154;SDS011;10238;49.556;10.956;2023-11-19T03:11:32;6.13;;;3.65;;
20154;SDS011;10238;49.556;10.956;2023-11-19T03:14:19;5.55;;;4.45;;
20154;SDS011;10238;49.556;10.956;2023-11-19T03:17:08;5.78;;;4.55;;
20154;SDS011;10238;49.556;10.956;2023-11-19T03:19:57;4.60;;;3.45;;
20154;SDS011;10238;49.556;10.956;2023-11-19T03:22:46;7.43;;;4.72;;
20154;SDS011;10238;49.556;10.956;2023-11-19T03:25:35;4.30;;;3.90;;
20154;SDS011;10238;49.556;10.956;2023-11-19T03:28:23;5.40;;;4.35;;
20154;SDS011;10238;49.556;10.956;2023-11-19T03:31:11;4.35;;;3.95;;
20154;SDS011;10238;49.556;10.956;2023-11-19T03:33:59;4.28;;;3.88;;
20154;SDS011;10238;49.556;10.956;2023-11-19T03:36:49;4.55;;;4.15;;
20154;SDS011;10238;49.556;10.956;2023-11-19T03:39:36;4.93;;;4.45;;
20154;SDS011;10238;49.556;10.956;2023-11-19T03:42:24;5.28;;;4.63;;
20154;SDS011;10238;49.556;10.956;2023-11-19T03:45:12;5.13;;;4.63;;
20154;SDS011;10238;49.556;10.956;2023-11-19T03:48:01;5.80;;;5.22;;
20154;SDS011;10238;49.556;10.956;2023-11-19T03:50:49;7.93;;;4.90;;
20154;SDS011;10238;49.556;10.956;2023-11-19T03:53:38;5.18;;;4.63;;
20154;SDS011;10238;49.556;10.956;2023-11-19T03:56:26;5.50;;;5.00;;
20154;SDS011;10238;49.556;10.956;2023-11-19T03:59:14;5.57;;;4.78;;
20154;SDS011;10238;49.556;10.956;2023-11-19T04:02:01;4.75;;;4.25;;
20154;SDS011;10238;49.556;10.956;2023-11-19T04:04:49;5.90;;;4.65;;
20154;SDS011;10238;49.556;10.956;2023-11-19T04:07:36;7.82;;;5.68;;
20154;SDS011;10238;49.556;10.956;2023-11-19T04:10:25;6.57;;;4.78;;
20154;SDS011;10238;49.556;10.956;2023-11-19T04:13:13;6.47;;;4.80;;
20154;SDS011;10238;49.556;10.956;2023-11-19T04:16:01;6.68;;;5.30;;
20154;SDS011;10238;49.556;10.956;2023-11-19T04:18:50;5.90;;;5.03;;
20154;SDS011;10238;49.556;10.956;2023-11-19T04:21:39;5.68;;;4.43;;
20154;SDS011;10238;49.556;10.956;2023-11-19T04:24:27;5.50;;;4.90;;
20154;SDS011;10238;49.556;10.956;2023-11-19T04:27:16;7.05;;;5.35;;
20154;SDS011;10238;49.556;10.956;2023-11-19T04:30:04;6.32;;;5.20;;
20154;SDS011;10238;49.556;10.956;2023-11-19T04:32:55;5.60;;;4.97;;
20154;SDS011;10238;49.556;10.956;2023-11-19T04:35:43;6.68;;;5.32;;
20154;SDS011;10238;49.556;10.956;2023-11-19T04:38:31;6.30;;;5.65;;
20154;SDS011;10238;49.556;10.956;2023-11-19T04:41:18;6.75;;;5.55;;
20154;SDS011;10238;49.556;10.956;2023-11-19T04:44:07;6.00;;;5.25;;
20154;SDS011;10238;49.556;10.956;2023-11-19T04:46:55;6.20;;;5.22;;
20154;SDS011;10238;49.556;10.956;2023-11-19T04:49:43;6.13;;;5.30;;
20154;SDS011;10238;49.556;10.956;2023-11-19T04:52:31;6.15;;;5.00;;
20154;SDS011;10238;49.556;10.956;2023-11-19T04:55:19;6.07;;;4.97;;
20154;SDS011;10238;49.556;10.956;2023-11-19T04:58:07;7.05;;;5.72;;
20154;SDS011;10238;49.556;10.956;2023-11-19T05:00:56;7.05;;;5.60;;
20154;SDS011;10238;49.556;10.956;2023-11-19T05:03:43;5.40;;;4.50;;
20154;SDS011;10238;49.556;10.956;2023-11-19T05:06:32;7.38;;;6.15;;
20154;SDS011;10238;49.556;10.956;2023-11-19T05:09:21;7.80;;;5.93;;
20154;SDS011;10238;49.556;10.956;2023-11-19T05:12:08;8.77;;;5.60;;
20154;SDS011;10238;49.556;10.956;2023-11-19T05:14:58;5.63;;;5.00;;
20154;SDS011;10238;49.556;10.956;2023-11-19T05:17:47;7.10;;;5.80;;
20154;SDS011;10238;49.556;10.956;2023-11-19T05:20:34;7.78;;;5.70;;
20154;SDS011;10238;49.556;10.956;2023-11-19T05:23:22;7.13;;;5.60;;
20154;SDS011;10238;49.556;10.956;2023-11-19T05:26:16;7.60;;;5.90;;
20154;SDS011;10238;49.556;10.956;2023-11-19T05:29:06;7.13;;;5.97;;
20154;SDS011;10238;49.556;10.956;2023-11-19T05:31:53;7.85;;;5.75;;
20154;SDS011;10238;49.556;10.956;2023-11-19T05:34:43;7.50;;;5.90;;
20154;SDS011;10238;49.556;10.956;2023-11-19T05:37:33;7.90;;;6.30;;
20154;SDS011;10238;49.556;10.956;2023-11-19T05:40:21;8.63;;;6.60;;
20154;SDS011;10238;49.556;10.956;2023-11-19T05:43:09;8.15;;;5.63;;
20154;SDS011;10238;49.556;10.956;2023-11-19T05:45:56;7.47;;;5.85;;
20154;SDS011;10238;49.556;10.956;2023-11-19T05:48:44;6.65;;;5.50;;
20154;SDS011;10238;49.556;10.956;2023-11-19T05:51:37;7.72;;;5.65;;
20154;SDS011;10238;49.556;10.956;2023-11-19T05:54:25;7.70;;;5.00;;
20154;SDS011;10238;49.556;10.956;2023-11-19T05:57:15;7.57;;;6.30;;
20154;SDS011;10238;49.556;10.956;2023-11-19T06:00:06;9.27;;;6.55;;
20154;SDS011;10238;49.556;10.956;2023-11-19T06:02:56;7.20;;;6.40;;
20154;SDS011;10238;49.556;10.956;2023-11-19T06:05:44;6.07;;;5.28;;
20154;SDS011;10238;49.556;10.956;2023-11-19T06:08:33;7.20;;;5.35;;
20154;SDS011;10238;49.556;10.956;2023-11-19T06:11:22;6.15;;;4.95;;
20154;SDS011;10238;49.556;10.956;2023-11-19T06:14:12;6.90;;;5.68;;
20154;SDS011;10238;49.556;10.956;2023-11-19T06:16:59;8.02;;;6.25;;
20154;SDS011;10238;49.556;10.956;2023-11-19T06:19:47;7.80;;;5.43;;
20154;SDS011;10238;49.556;10.956;2023-11-19T06:22:35;8.30;;;6.05;;
20154;SDS011;10238;49.556;10.956;2023-11-19T06:25:24;7.55;;;5.97;;
20154;SDS011;10238;49.556;10.956;2023-11-19T06:28:12;8.05;;;5.05;;
20154;SDS011;10238;49.556;10.956;2023-11-19T06:31:00;7.00;;;5.85;;
20154;SDS011;10238;49.556;10.956;2023-11-19T06:33:48;7.53;;;5.50;;
20154;SDS011;10238;49.556;10.956;2023-11-19T06:36:36;6.22;;;5.20;;
20154;SDS011;10238;49.556;10.956;2023-11-19T06:39:24;6.85;;;5.15;;
20154;SDS011;10238;49.556;10.956;2023-11-19T06:42:13;5.60;;;4.63;;
20154;SDS011;10238;49.556;10.956;2023-11-19T06:45:01;6.85;;;5.03;;
20154;SDS011;10238;49.556;10.956;2023-11-19T06:47:49;4.90;;;4.00;;
20154;SDS011;10238;49.556;10.956;2023-11-19T06:50:37;4.10;;;3.05;;
20154;SDS011;10238;49.556;10.956;2023-11-19T06:53:27;2.88;;;2.50;;
20154;SDS011;10238;49.556;10.956;2023-11-19T06:56:19;2.92;;;2.55;;
20154;SDS011;10238;49.556;10.956;2023-11-19T06:59:09;3.30;;;2.58;;
20154;SDS011;10238;49.556;10.956;2023-11-19T07:01:56;2.38;;;1.98;;
20154;SDS011;10238;49.556;10.956;2023-11-19T07:04:45;1.80;;;1.70;;
20154;SDS011;10238;49.556;10.956;2023-11-19T07:07:32;2.10;;;1.90;;
20154;SDS011;10238;49.556;10.956;2023-11-19T07:10:21;1.90;;;1.60;;
20154;SDS011;10238;49.556;10.956;2023-11-19T07:13:09;1.40;;;1.30;;
20154;SDS011;10238;49.556;10.956;2023-11-19T07:15:58;1.33;;;1.27;;
20154;SDS011;10238;49.556;10.956;2023-11-19T07:18:45;1.30;;;1.20;;
20154;SDS011;10238;49.556;10.956;2023-11-19T07:21:35;1.40;;;1.30;;
20154;SDS011;10238;49.556;10.956;2023-11-19T07:24:25;1.75;;;1.15;;
20154;SDS011;10238;49.556;10.956;2023-11-19T07:27:14;0.90;;;0.90;;
20154;SDS011;10238;49.556;10.956;2023-11-19T07:30:02;1.25;;;0.98;;
20154;SDS011;10238;49.556;10.956;2023-11-19T07:32:54;1.35;;;1.10;;
20154;SDS011;10238;49.556;10.956;2023-11-19T07:35:42;1.00;;;1.00;;
20154;SDS011;10238;49.556;10.956;2023-11-19T07:38:30;1.10;;;1.10;;
20154;SDS011;10238;49.556;10.956;2023-11-19T07:41:17;1.55;;;1.17;;
20154;SDS011;10238;49.556;10.956;2023-11-19T07:44:05;0.80;;;0.80;;
20154;SDS011;10238;49.556;10.956;2023-11-19T07:46:53;1.10;;;1.00;;
20154;SDS011;10238;49.556;10.956;2023-11-19T07:49:42;1.17;;;1.08;;
20154;SDS011;10238;49.556;10.956;2023-11-19T07:52:30;3.78;;;1.92;;
20154;SDS011;10238;49.556;10.956;2023-11-19T07:55:18;2.65;;;1.20;;
20154;SDS011;10238;49.556;10.956;2023-11-19T07:58:07;8.75;;;4.13;;
20154;SDS011;10238;49.556;10.956;2023-11-19T08:00:54;1.75;;;1.65;;
20154;SDS011;10238;49.556;10.956;2023-11-19T08:03:41;1.80;;;1.70;;
20154;SDS011;10238;49.556;10.956;2023-11-19T08:06:45;2.15;;;1.15;;
20154;SDS011;10238;49.556;10.956;2023-11-19T08:09:33;1.50;;;1.40;;
20154;SDS011;10238;49.556;10.956;2023-11-19T08:12:21;1.90;;;1.70;;
20154;SDS011;10238;49.556;10.956;2023-11-19T08:15:08;2.00;;;1.70;;
20154;SDS011;10238;49.556;10.956;2023-11-19T08:17:56;1.85;;;1.65;;
20154;SDS011;10238;49.556;10.956;2023-11-19T08:20:44;2.00;;;1.50;;
20154;SDS011;10238;49.556;10.956;2023-11-19T08:23:37;1.85;;;1.75;;
20154;SDS011;10238;49.556;10.956;2023-11-19T08:26:25;1.55;;;1.45;;
20154;SDS011;10238;49.556;10.956;2023-11-19T08:29:13;5.35;;;1.75;;
20154;SDS011;10238;49.556;10.956;2023-11-19T08:32:00;1.30;;;1.20;;
20154;SDS011;10238;49.556;10.956;2023-11-19T08:34:49;1.48;;;1.38;;
20154;SDS011;10238;49.556;10.956;2023-11-19T08:37:37;1.38;;;1.23;;
20154;SDS011;10238;49.556;10.956;2023-11-19T08:40:34;1.65;;;1.40;;
20154;SDS011;10238;49.556;10.956;2023-11-19T08:43:23;1.23;;;1.23;;
20154;SDS011;10238;49.556;10.956;2023-11-19T08:46:11;1.63;;;1.50;;
20154;SDS011;10238;49.556;10.956;2023-11-19T08:48:59;1.77;;;1.55;;
20154;SDS011;10238;49.556;10.956;2023-11-19T08:51:47;2.17;;;1.55;;
20154;SDS011;10238;49.556;10.956;2023-11-19T08:54:34;1.40;;;1.30;;
20154;SDS011;10238;49.556;10.956;2023-11-19T08:57:23;1.42;;;1.33;;
20154;SDS011;10238;49.556;10.956;2023-11-19T09:00:11;4.43;;;1.80;;
20154;SDS011;10238;49.556;10.956;2023-11-19T09:03:01;1.55;;;1.45;;
20154;SDS011;10238;49.556;10.956;2023-11-19T09:05:49;2.05;;;1.15;;
20154;SDS011;10238;49.556;10.956;2023-11-19T09:08:37;1.40;;;1.30;;
20154;SDS011;10238;49.556;10.956;2023-11-19T09:11:25;1.10;;;1.10;;
20154;SDS011;10238;49.556;10.956;2023-11-19T09:14:14;1.08;;;0.98;;
20154;SDS011;10238;49.556;10.956;2023-11-19T09:17:02;1.30;;;1.20;;
20154;SDS011;10238;49.556;10.956;2023-11-19T09:19:50;2.38;;;1.08;;
20154;SDS011;10238;49.556;10.956;2023-11-19T09:22:38;2.08;;;1.23;;
20154;SDS011;10238;49.556;10.956;2023-11-19T09:25:26;1.67;;;1.38;;
20154;SDS011;10238;49.556;10.956;2023-11-19T09:28:30;1.40;;;1.30;;
20154;SDS011;10238;49.556;10.956;2023-11-19T09:31:19;1.88;;;1.60;;
20154;SDS011;10238;49.556;10.956;2023-11-19T09:34:07;1.50;;;1.40;;
20154;SDS011;10238;49.556;10.956;2023-11-19T09:36:55;2.58;;;1.30;;
20154;SDS011;10238;49.556;10.956;2023-11-19T09:39:42;1.38;;;1.20;;
20154;SDS011;10238;49.556;10.956;2023-11-19T09:42:30;1.75;;;1.40;;
20154;SDS011;10238;49.556;10.956;2023-11-19T09:45:29;1.65;;;1.55;;
20154;SDS011;10238;49.556;10.956;2023-11-19T09:48:35;4.63;;;2.10;;
20154;SDS011;10238;49.556;10.956;2023-11-19T09:51:23;2.30;;;1.90;;
20154;SDS011;10238;49.556;10.956;2023-11-19T09:54:11;2.83;;;1.92;;
20154;SDS011;10238;49.556;10.956;2023-11-19T09:56:59;1.35;;;1.25;;
20154;SDS011;10238;49.556;10.956;2023-11-19T09:59:51;1.98;;;1.70;;
20154;SDS011;10238;49.556;10.956;2023-11-19T10:02:41;1.80;;;1.70;;
20154;SDS011;10238;49.556;10.956;2023-11-19T10:05:34;2.65;;;1.50;;
20154;SDS011;10238;49.556;10.956;2023-11-19T10:08:24;1.20;;;1.20;;
20154;SDS011;10238;49.556;10.956;2023-11-19T10:11:12;1.95;;;1.80;;
20154;SDS011;10238;49.556;10.956;2023-11-19T10:14:00;5.22;;;1.80;;
20154;SDS011;10238;49.556;10.956;2023-11-19T10:16:49;2.55;;;1.42;;
20154;SDS011;10238;49.556;10.956;2023-11-19T10:19:36;1.77;;;1.67;;
20154;SDS011;10238;49.556;10.956;2023-11-19T10:22:28;1.92;;;1.83;;
20154;SDS011;10238;49.556;10.956;2023-11-19T10:25:23;3.03;;;1.60;;
20154;SDS011;10238;49.556;10.956;2023-11-19T10:28:12;2.22;;;1.83;;
20154;SDS011;10238;49.556;10.956;2023-11-19T10:31:04;1.88;;;1.40;;
20154;SDS011;10238;49.556;10.956;2023-11-19T10:33:53;1.73;;;1.35;;
20154;SDS011;10238;49.556;10.956;2023-11-19T10:36:41;3.53;;;1.42;;
20154;SDS011;10238;49.556;10.956;2023-11-19T10:39:37;1.40;;;1.25;;
20154;SDS011;10238;49.556;10.956;2023-11-19T10:42:41;1.35;;;1.25;;
20154;SDS011;10238;49.556;10.956;2023-11-19T10:45:29;2.92;;;1.10;;
20154;SDS011;10238;49.556;10.956;2023-11-19T10:48:17;1.52;;;1.42;;
20154;SDS011;10238;49.556;10.956;2023-11-19T10:51:06;2.40;;;1.20;;
20154;SDS011;10238;49.556;10.956;2023-11-19T10:53:56;1.88;;;1.20;;
20154;SDS011;10238;49.556;10.956;2023-11-19T10:56:54;1.50;;;1.40;;
20154;SDS011;10238;49.556;10.956;2023-11-19T10:59:47;1.52;;;1.30;;
20154;SDS011;10238;49.556;10.956;2023-11-19T11:02:40;1.10;;;1.10;;
20154;SDS011;10238;49.556;10.956;2023-11-19T11:05:32;1.42;;;1.33;;
20154;SDS011;10238;49.556;10.956;2023-11-19T11:08:21;1.40;;;1.30;;
20154;SDS011;10238;49.556;10.956;2023-11-19T11:11:09;1.85;;;1.33;;
20154;SDS011;10238;49.556;10.956;2023-11-19T11:14:04;1.65;;;1.50;;
20154;SDS011;10238;49.556;10.956;2023-11-19T11:16:54;3.17;;;1.80;;
20154;SDS011;10238;49.556;10.956;2023-11-19T11:19:45;1.92;;;1.33;;
20154;SDS011;10238;49.556;10.956;2023-11-19T11:22:34;1.40;;;1.08;;
20154;SDS011;10238;49.556;10.956;2023-11-19T11:25:37;2.15;;;1.30;;
20154;SDS011;10238;49.556;10.956;2023-11-19T11:28:40;3.42;;;1.20;;
20154;SDS011;10238;49.556;10.956;2023-11-19T11:31:39;3.03;;;1.30;;
20154;SDS011;10238;49.556;10.956;2023-11-19T11:34:48;2.30;;;1.30;;
20154;SDS011;10238;49.556;10.956;2023-11-19T11:38:06;2.05;;;1.25;;
20154;SDS011;10238;49.556;10.956;2023-11-19T11:44:06;2.08;;;1.30;;
20154;SDS011;10238;49.556;10.956;2023-11-19T11:46:56;2.58;;;1.40;;
20154;SDS011;10238;49.556;10.956;2023-11-19T11:49:44;3.72;;;1.70;;
20154;SDS011;10238;49.556;10.956;2023-11-19T11:52:33;1.67;;;1.45;;
20154;SDS011;10238;49.556;10.956;2023-11-19T11:55:51;3.72;;;1.83;;
20154;SDS011;10238;49.556;10.956;2023-11-19T11:58:45;4.45;;;1.60;;
20154;SDS011;10238;49.556;10.956;2023-11-19T12:01:33;2.10;;;1.70;;
20154;SDS011;10238;49.556;10.956;2023-11-19T12:04:26;3.13;;;1.58;;
20154;SDS011;10238;49.556;10.956;2023-11-19T12:07:16;1.98;;;1.38;;
20154;SDS011;10238;49.556;10.956;2023-11-19T12:10:09;1.30;;;1.20;;
20154;SDS011;10238;49.556;10.956;2023-11-19T12:12:59;2.70;;;1.15;;
20154;SDS011;10238;49.556;10.956;2023-11-19T12:18:54;2.03;;;1.35;;
20154;SDS011;10238;49.556;10.956;2023-11-19T12:21:44;5.28;;;1.13;;
20154;SDS011;10238;49.556;10.956;2023-11-19T12:24:32;2.00;;;1.30;;
20154;SDS011;10238;49.556;10.956;2023-11-19T12:27:21;1.33;;;1.25;;
20154;SDS011;10238;49.556;10.956;2023-11-19T12:30:09;4.80;;;1.58;;
20154;SDS011;10238;49.556;10.956;2023-11-19T12:32:58;2.65;;;1.80;;
20154;SDS011;10238;49.556;10.956;2023-11-19T12:35:46;2.08;;;1.63;;
20154;SDS011;10238;49.556;10.956;2023-11-19T12:38:36;2.60;;;1.67;;
20154;SDS011;10238;49.556;10.956;2023-11-19T12:41:24;2.70;;;1.92;;
20154;SDS011;10238;49.556;10.956;2023-11-19T12:44:12;2.72;;;1.70;;
20154;SDS011;10238;49.556;10.956;2023-11-19T12:47:00;1.33;;;1.23;;
20154;SDS011;10238;49.556;10.956;2023-11-19T12:49:55;2.10;;;1.90;;
20154;SDS011;10238;49.556;10.956;2023-11-19T12:52:43;2.60;;;1.80;;
20154;SDS011;10238;49.556;10.956;2023-11-19T12:55:43;3.65;;;1.88;;
20154;SDS011;10238;49.556;10.956;2023-11-19T12:58:31;2.10;;;1.67;;
20154;SDS011;10238;49.556;10.956;2023-11-19T13:01:21;2.15;;;1.77;;
20154;SDS011;10238;49.556;10.956;2023-11-19T13:04:16;3.05;;;1.92;;
20154;SDS011;10238;49.556;10.956;2023-11-19T13:07:05;5.93;;;2.20;;
20154;SDS011;10238;49.556;10.956;2023-11-19T13:10:00;2.88;;;2.22;;
20154;SDS011;10238;49.556;10.956;2023-11-19T13:13:00;3.65;;;2.30;;
20154;SDS011;10238;49.556;10.956;2023-11-19T13:15:52;3.92;;;1.98;;
20154;SDS011;10238;49.556;10.956;2023-11-19T13:18:50;5.20;;;1.88;;
20154;SDS011;10238;49.556;10.956;2023-11-19T13:21:38;2.65;;;1.98;;
20154;SDS011;10238;49.556;10.956;2023-11-19T13:24:26;2.25;;;1.70;;
20154;SDS011;10238;49.556;10.956;2023-11-19T13:27:14;4.15;;;1.85;;
20154;SDS011;10238;49.556;10.956;2023-11-19T13:30:05;2.15;;;1.92;;
20154;SDS011;10238;49.556;10.956;2023-11-19T13:33:12;2.92;;;2.15;;
20154;SDS011;10238;49.556;10.956;2023-11-19T13:36:00;2.95;;;1.83;;
20154;SDS011;10238;49.556;10.956;2023-11-19T13:38:51;1.73;;;1.60;;
20154;SDS011;10238;49.556;10.956;2023-11-19T13:41:45;2.75;;;1.70;;
20154;SDS011;10238;49.556;10.956;2023-11-19T13:44:32;2.28;;;1.63;;
20154;SDS011;10238;49.556;10.956;2023-11-19T13:47:21;3.35;;;1.48;;
20154;SDS011;10238;49.556;10.956;2023-11-19T13:50:09;3.10;;;1.80;;
20154;SDS011;10238;49.556;10.956;2023-11-19T13:52:59;2.22;;;1.52;;
20154;SDS011;10238;49.556;10.956;2023-11-19T13:55:47;2.33;;;1.35;;
20154;SDS011;10238;49.556;10.956;2023-11-19T13:58:34;6.63;;;2.00;;
20154;SDS011;10238;49.556;10.956;2023-11-19T14:01:23;1.73;;;1.38;;
20154;SDS011;10238;49.556;10.956;2023-11-19T14:04:14;1.63;;;1.50;;
20154;SDS011;10238;49.556;10.956;2023-11-19T14:07:02;2.50;;;1.90;;
20154;SDS011;10238;49.556;10.956;2023-11-19T14:09:50;2.90;;;1.65;;
20154;SDS011;10238;49.556;10.956;2023-11-19T14:12:38;1.70;;;1.60;;
20154;SDS011;10238;49.556;10.956;2023-11-19T14:15:26;2.50;;;1.30;;
20154;SDS011;10238;49.556;10.956;2023-11-19T14:18:14;2.03;;;1.60;;
20154;SDS011;10238;49.556;10.956;2023-11-19T14:21:03;1.40;;;1.30;;
20154;SDS011;10238;49.556;10.956;2023-11-19T14:23:52;1.42;;;1.20;;
20154;SDS011;10238;49.556;10.956;2023-11-19T14:26:40;1.85;;;1.65;;
20154;SDS011;10238;49.556;10.956;2023-11-19T14:29:27;2.67;;;1.20;;
20154;SDS011;10238;49.556;10.956;2023-11-19T14:32:16;2.10;;;1.30;;
20154;SDS011;10238;49.556;10.956;2023-11-19T14:35:04;3.90;;;3.08;;
20154;SDS011;10238;49.556;10.956;2023-11-19T14:37:55;3.47;;;3.17;;
20154;SDS011;10238;49.556;10.956;2023-11-19T14:40:42;3.92;;;3.10;;
20154;SDS011;10238;49.556;10.956;2023-11-19T14:43:30;1.95;;;1.80;;
20154;SDS011;10238;49.556;10.956;2023-11-19T14:46:18;2.75;;;2.03;;
20154;SDS011;10238;49.556;10.956;2023-11-19T14:49:06;3.38;;;1.83;;
20154;SDS011;10238;49.556;10.956;2023-11-19T14:51:54;3.25;;;1.80;;
20154;SDS011;10238;49.556;10.956;2023-11-19T14:54:43;2.42;;;1.73;;
20154;SDS011;10238;49.556;10.956;2023-11-19T14:57:30;1.98;;;1.60;;
20154;SDS011;10238;49.556;10.956;2023-11-19T15:00:18;3.28;;;1.77;;
20154;SDS011;10238;49.556;10.956;2023-11-19T15:03:06;2.10;;;1.52;;
20154;SDS011;10238;49.556;10.956;2023-11-19T15:05:55;2.47;;;1.30;;
20154;SDS011;10238;49.556;10.956;2023-11-19T15:08:45;1.73;;;1.48;;
20154;SDS011;10238;49.556;10.956;2023-11-19T15:11:34;2.28;;;1.70;;
20154;SDS011;10238;49.556;10.956;2023-11-19T15:14:22;2.50;;;1.95;;
20154;SDS011;10238;49.556;10.956;2023-11-19T15:17:09;4.95;;;1.98;;
20154;SDS011;10238;49.556;10.956;2023-11-19T15:19:57;3.20;;;2.15;;
20154;SDS011;10238;49.556;10.956;2023-11-19T15:22:46;3.00;;;2.25;;
20154;SDS011;10238;49.556;10.956;2023-11-19T15:25:33;3.28;;;1.80;;
20154;SDS011;10238;49.556;10.956;2023-11-19T15:28:23;4.25;;;2.20;;
20154;SDS011;10238;49.556;10.956;2023-11-19T15:31:11;3.55;;;2.30;;
20154;SDS011;10238;49.556;10.956;2023-11-19T15:34:00;3.80;;;2.38;;
20154;SDS011;10238;49.556;10.956;2023-11-19T15:36:48;3.33;;;2.40;;
20154;SDS011;10238;49.556;10.956;2023-11-19T15:39:36;3.97;;;2.65;;
20154;SDS011;10238;49.556;10.956;2023-11-19T15:42:23;6.43;;;3.38;;
20154;SDS011;10238;49.556;10.956;2023-11-19T15:45:13;3.25;;;3.05;;
20154;SDS011;10238;49.556;10.956;2023-11-19T15:48:02;8.02;;;5.90;;
20154;SDS011;10238;49.556;10.956;2023-11-19T15:50:50;5.45;;;3.30;;
20154;SDS011;10238;49.556;10.956;2023-11-19T15:53:38;4.28;;;3.67;;
20154;SDS011;10238;49.556;10.956;2023-11-19T15:56:26;8.65;;;3.47;;
20154;SDS011;10238;49.556;10.956;2023-11-19T15:59:16;3.53;;;3.22;;
20154;SDS011;10238;49.556;10.956;2023-11-19T16:02:05;8.93;;;3.55;;
20154;SDS011;10238;49.556;10.956;2023-11-19T16:04:53;4.15;;;3.20;;
20154;SDS011;10238;49.556;10.956;2023-11-19T16:07:41;5.10;;;2.75;;
20154;SDS011;10238;49.556;10.956;2023-11-19T16:10:29;3.85;;;2.97;;
20154;SDS011;10238;49.556;10.956;2023-11-19T16:13:17;6.72;;;3.38;;
20154;SDS011;10238;49.556;10.956;2023-11-19T16:16:05;3.90;;;3.60;;
20154;SDS011;10238;49.556;10.956;2023-11-19T16:18:57;4.10;;;3.15;;
20154;SDS011;10238;49.556;10.956;2023-11-19T16:21:45;3.60;;;3.20;;
20154;SDS011;10238;49.556;10.956;2023-11-19T16:24:33;3.35;;;2.95;;
20154;SDS011;10238;49.556;10.956;2023-11-19T16:27:21;3.30;;;3.00;;
20154;SDS011;10238;49.556;10.956;2023-11-19T16:30:11;3.40;;;3.20;;
20154;SDS011;10238;49.556;10.956;2023-11-19T16:32:59;4.40;;;3.38;;
20154;SDS011;10238;49.556;10.956;2023-11-19T16:35:51;5.03;;;3.60;;
20154;SDS011;10238;49.556;10.956;2023-11-19T16:38:38;3.92;;;3.00;;
20154;SDS011;10238;49.556;10.956;2023-11-19T16:41:26;3.17;;;2.88;;
20154;SDS011;10238;49.556;10.956;2023-11-19T16:44:26;3.33;;;2.78;;
20154;SDS011;10238;49.556;10.956;2023-11-19T16:47:14;6.28;;;2.60;;
20154;SDS011;10238;49.556;10.956;2023-11-19T16:50:02;3.30;;;2.35;;
20154;SDS011;10238;49.556;10.956;2023-11-19T16:52:51;6.00;;;3.03;;